Time;durP1;ratioP1;P1;durP2;ratioP2;P2;SDS_P1;SDS_P2;PMS_P1;PMS_P2;Temp;Humidity;BMP_temperature;BMP_pressure;BME280_temperature;BME280_humidity;BME280_pressure;Samples;Min_cycle;Max_cycle;Signal;HPM_P1;HPM_P2
2022/07/06 00:00:38;;;;;;;5.68;3.50;;;20.90;75.10;;;;;;5013306;28;20419;-66
2022/07/06 00:03:04;;;;;;;4.72;3.30;;;20.80;75.10;;;;;;5013314;28;20502;-66
2022/07/06 00:05:29;;;;;;;4.50;3.13;;;20.90;75.30;;;;;;5013305;28;20391;-65
2022/07/06 00:07:55;;;;;;;4.85;2.90;;;20.80;75.30;;;;;;5011992;28;20034;-66
2022/07/06 00:10:20;;;;;;;4.50;3.08;;;20.80;75.30;;;;;;5012598;28;20030;-66
2022/07/06 00:12:46;;;;;;;4.68;2.60;;;20.70;75.20;;;;;;5011946;28;20077;-66
2022/07/06 00:15:12;;;;;;;5.47;3.17;;;20.70;75.30;;;;;;5016363;28;20022;-65
2022/07/06 00:17:37;;;;;;;5.10;2.92;;;20.70;75.40;;;;;;5017031;28;20502;-66
2022/07/06 00:20:03;;;;;;;4.85;2.67;;;20.70;75.50;;;;;;5017158;28;20427;-66
2022/07/06 00:22:28;;;;;;;5.10;2.95;;;20.70;75.50;;;;;;5017032;28;20030;-66
2022/07/06 00:24:54;;;;;;;4.60;2.90;;;20.70;75.60;;;;;;5016907;28;20030;-66
2022/07/06 00:27:19;;;;;;;4.38;2.90;;;20.70;75.80;;;;;;5016783;28;20022;-67
2022/07/06 00:29:45;;;;;;;4.88;2.90;;;20.70;75.80;;;;;;5016954;28;20029;-65
2022/07/06 00:32:11;;;;;;;4.55;2.95;;;20.70;75.80;;;;;;5016753;28;20491;-66
2022/07/06 00:34:39;;;;;;;6.18;3.03;;;20.60;75.80;;;;;;5016955;28;20018;-66
2022/07/06 00:37:06;;;;;;;5.13;2.88;;;20.60;76.10;;;;;;5015533;28;20399;-67
2022/07/06 00:39:31;;;;;;;4.25;2.85;;;20.60;76.00;;;;;;5015515;28;20073;-66
2022/07/06 00:41:57;;;;;;;6.78;2.97;;;20.60;75.90;;;;;;5016715;28;20088;-63
2022/07/06 00:44:22;;;;;;;5.10;3.03;;;20.60;75.90;;;;;;5016631;28;20038;-66
2022/07/06 00:46:48;;;;;;;4.65;3.00;;;20.50;76.00;;;;;;5016599;28;20038;-66
2022/07/06 00:51:59;;;;;;;5.68;3.30;;;20.50;76.10;;;;;;5016830;28;20052;-64
2022/07/06 00:54:25;;;;;;;6.88;3.15;;;20.40;76.20;;;;;;5016300;28;20455;-66
2022/07/06 00:56:51;;;;;;;6.20;3.38;;;20.50;76.30;;;;;;5016434;28;20442;-66
2022/07/06 00:59:16;;;;;;;3.60;2.63;;;20.40;76.10;;;;;;5015218;28;20022;-66
2022/07/06 01:01:42;;;;;;;4.18;2.97;;;20.40;76.40;;;;;;5016528;28;20391;-66
2022/07/06 01:04:07;;;;;;;5.78;3.15;;;20.40;76.30;;;;;;5016470;28;20033;-67
2022/07/06 01:06:33;;;;;;;5.50;3.10;;;20.40;76.20;;;;;;5016466;28;20025;-66
2022/07/06 01:08:59;;;;;;;4.75;3.00;;;20.40;76.40;;;;;;5016168;28;20018;-66
2022/07/06 01:11:25;;;;;;;4.85;3.00;;;20.30;76.50;;;;;;5016478;28;20037;-65
2022/07/06 01:13:51;;;;;;;3.85;3.00;;;20.30;76.50;;;;;;5016183;28;20475;-64
2022/07/06 01:16:17;;;;;;;3.28;2.35;;;20.30;76.50;;;;;;5016351;28;20080;-64
2022/07/06 01:18:43;;;;;;;4.22;3.30;;;20.30;76.70;;;;;;5016311;28;20119;-64
2022/07/06 01:21:10;;;;;;;6.78;3.00;;;20.30;76.70;;;;;;5016202;28;20475;-64
2022/07/06 01:23:44;;;;;;;5.28;3.03;;;20.20;76.70;;;;;;5015930;28;20048;-65
2022/07/06 01:26:15;;;;;;;4.53;3.10;;;20.20;76.80;;;;;;5014615;28;20034;-66
2022/07/06 01:28:41;;;;;;;6.03;3.05;;;20.20;76.90;;;;;;5016172;28;20022;-65
2022/07/06 01:31:18;;;;;;;4.38;2.90;;;20.20;76.80;;;;;;5016071;28;20374;-66
2022/07/06 01:33:44;;;;;;;3.33;2.90;;;20.20;76.90;;;;;;5015783;28;20532;-65
2022/07/06 01:36:10;;;;;;;4.88;2.88;;;20.20;76.90;;;;;;5015796;28;20060;-66
2022/07/06 01:38:49;;;;;;;4.93;3.10;;;20.20;76.90;;;;;;5015472;28;20022;-65
2022/07/06 01:41:16;;;;;;;4.45;3.15;;;20.20;77.20;;;;;;5014474;28;20030;-66
2022/07/06 01:43:42;;;;;;;4.97;2.75;;;20.10;76.90;;;;;;5015592;28;20023;-66
2022/07/06 01:46:08;;;;;;;3.13;2.80;;;20.10;77.10;;;;;;5015462;28;20038;-64
2022/07/06 01:48:34;;;;;;;5.53;3.15;;;20.10;77.00;;;;;;5015539;28;20025;-66
2022/07/06 01:50:59;;;;;;;4.85;3.28;;;20.10;77.10;;;;;;5015544;28;20085;-65
2022/07/06 01:53:25;;;;;;;5.53;3.67;;;20.10;77.20;;;;;;5015029;28;20443;-66
2022/07/06 01:55:50;;;;;;;4.28;3.15;;;20.10;77.40;;;;;;5015246;28;20468;-66
2022/07/06 01:58:16;;;;;;;4.72;3.30;;;20.00;77.30;;;;;;5015321;28;20026;-66
2022/07/06 02:00:42;;;;;;;3.90;2.92;;;20.00;77.30;;;;;;5015438;28;20387;-66
2022/07/06 02:03:07;;;;;;;5.07;3.28;;;20.00;77.30;;;;;;5015083;28;20064;-66
2022/07/06 02:05:33;;;;;;;4.78;3.30;;;20.00;77.40;;;;;;5015237;28;20407;-66
2022/07/06 02:07:58;;;;;;;3.58;2.60;;;20.00;77.40;;;;;;5015012;28;20459;-66
2022/07/06 02:10:24;;;;;;;4.47;3.10;;;20.00;77.60;;;;;;5014905;28;20033;-66
2022/07/06 02:12:49;;;;;;;5.72;2.88;;;19.90;77.60;;;;;;5014991;28;20052;-66
2022/07/06 02:15:15;;;;;;;5.22;3.45;;;19.90;77.60;;;;;;5015118;28;20495;-66
2022/07/06 02:17:41;;;;;;;5.57;3.60;;;19.90;77.50;;;;;;5014802;28;20029;-67
2022/07/06 02:20:07;;;;;;;5.75;3.30;;;19.90;77.70;;;;;;5015044;28;20521;-66
2022/07/06 02:22:33;;;;;;;6.07;3.25;;;19.90;77.70;;;;;;5014775;28;20025;-65
2022/07/06 02:24:58;;;;;;;3.80;2.88;;;19.90;77.90;;;;;;5013581;28;20072;-66
2022/07/06 02:27:24;;;;;;;4.53;3.42;;;19.90;78.00;;;;;;5014969;28;20482;-64
2022/07/06 02:29:50;;;;;;;5.75;3.50;;;19.80;77.90;;;;;;5014682;28;20026;-65
2022/07/06 02:32:16;;;;;;;7.75;3.40;;;19.80;78.00;;;;;;5014704;28;20037;-64
2022/07/06 02:34:41;;;;;;;7.85;3.83;;;19.80;78.10;;;;;;5013676;28;20430;-65
2022/07/06 02:37:07;;;;;;;5.90;3.53;;;19.80;78.90;;;;;;5013929;28;20045;-65
2022/07/06 02:39:33;;;;;;;4.90;3.22;;;19.80;78.10;;;;;;5014778;28;20101;-65
2022/07/06 02:41:58;;;;;;;6.72;3.50;;;19.80;78.30;;;;;;5014486;28;20030;-65
2022/07/06 02:44:24;;;;;;;5.28;3.22;;;19.70;78.20;;;;;;5014431;28;20062;-65
2022/07/06 02:46:49;;;;;;;3.17;2.88;;;19.80;78.30;;;;;;5014727;28;20041;-66
2022/07/06 02:49:15;;;;;;;5.57;3.42;;;19.70;78.50;;;;;;5014356;28;20028;-65
2022/07/06 02:51:40;;;;;;;3.38;3.08;;;19.70;78.40;;;;;;5014032;28;20068;-67
2022/07/06 02:54:06;;;;;;;4.43;3.60;;;19.70;78.60;;;;;;5014270;28;20060;-67
2022/07/06 02:56:32;;;;;;;7.38;3.90;;;19.70;78.70;;;;;;5014463;28;20022;-66
2022/07/06 02:58:57;;;;;;;5.60;3.47;;;19.70;78.70;;;;;;5014451;28;20463;-66
2022/07/06 03:01:23;;;;;;;6.78;4.00;;;19.70;78.80;;;;;;5013981;28;20022;-66
2022/07/06 03:03:48;;;;;;;4.18;3.75;;;19.70;78.80;;;;;;5014259;28;20033;-68
2022/07/06 03:06:14;;;;;;;5.55;3.55;;;19.60;78.80;;;;;;5013689;28;20025;-66
2022/07/06 03:08:39;;;;;;;5.65;3.45;;;19.60;78.90;;;;;;5014239;28;20026;-66
2022/07/06 03:11:05;;;;;;;4.68;3.53;;;19.60;79.10;;;;;;4996130;28;20034;-67
2022/07/06 03:13:30;;;;;;;5.25;3.75;;;19.60;79.10;;;;;;5013957;28;20123;-66
2022/07/06 03:15:56;;;;;;;5.05;3.67;;;19.60;79.20;;;;;;5012719;28;20022;-65
2022/07/06 03:18:22;;;;;;;5.07;3.75;;;19.60;79.20;;;;;;5013975;28;20482;-65
2022/07/06 03:20:47;;;;;;;6.13;3.90;;;19.50;79.30;;;;;;5013366;28;20014;-66
2022/07/06 03:23:13;;;;;;;4.60;3.80;;;19.50;79.30;;;;;;5013846;28;20030;-68
2022/07/06 03:25:39;;;;;;;4.25;3.90;;;19.50;79.40;;;;;;5014022;28;20031;-66
2022/07/06 03:28:04;;;;;;;4.45;3.88;;;19.50;79.30;;;;;;5013821;28;20030;-68
2022/07/06 03:30:30;;;;;;;5.68;4.32;;;19.50;79.50;;;;;;5013838;28;20037;-66
2022/07/06 03:32:55;;;;;;;6.47;4.53;;;19.50;79.50;;;;;;5013668;28;20034;-65
2022/07/06 03:35:21;;;;;;;10.00;5.22;;;19.50;79.60;;;;;;5013231;28;20026;-65
2022/07/06 03:37:47;;;;;;;6.20;4.65;;;19.50;79.50;;;;;;5013849;28;20102;-66
2022/07/06 03:40:13;;;;;;;6.85;4.38;;;19.40;79.60;;;;;;5013672;28;20018;-67
2022/07/06 03:42:39;;;;;;;4.88;4.35;;;19.50;79.60;;;;;;5013596;28;20022;-66
2022/07/06 03:45:05;;;;;;;5.18;4.30;;;19.40;79.70;;;;;;5013891;28;20041;-66
2022/07/06 03:47:31;;;;;;;5.13;4.07;;;19.40;79.70;;;;;;5013003;28;20080;-68
2022/07/06 03:49:56;;;;;;;6.13;4.90;;;19.40;79.70;;;;;;5013025;28;20018;-64
2022/07/06 03:52:22;;;;;;;9.77;4.57;;;19.40;79.80;;;;;;5013284;28;20037;-67
2022/07/06 03:54:49;;;;;;;6.70;4.55;;;19.30;79.80;;;;;;5013553;28;20129;-64
2022/07/06 03:57:15;;;;;;;9.27;5.45;;;19.40;79.80;;;;;;5013324;28;20123;-65
2022/07/06 03:59:40;;;;;;;8.00;4.72;;;19.40;79.80;;;;;;5013427;28;20041;-64
2022/07/06 04:02:06;;;;;;;8.63;4.80;;;19.40;79.90;;;;;;5013237;28;20052;-64
2022/07/06 04:04:33;;;;;;;7.13;4.55;;;19.30;80.00;;;;;;5013035;28;20514;-66
2022/07/06 04:06:59;;;;;;;7.57;5.60;;;19.40;80.00;;;;;;5013341;28;20080;-64
2022/07/06 04:09:24;;;;;;;6.35;5.60;;;19.30;80.10;;;;;;5013290;28;20030;-64
2022/07/06 04:11:50;;;;;;;8.95;5.30;;;19.30;80.20;;;;;;5013106;28;20041;-64
2022/07/06 04:14:15;;;;;;;8.38;5.68;;;19.30;80.20;;;;;;5013420;28;20495;-64
2022/07/06 04:16:41;;;;;;;9.18;6.05;;;19.30;80.20;;;;;;5013135;28;20026;-64
2022/07/06 04:19:07;;;;;;;7.28;5.68;;;19.30;80.40;;;;;;5012812;28;20053;-64
2022/07/06 04:21:32;;;;;;;7.38;5.80;;;19.30;80.60;;;;;;5013113;28;20018;-65
2022/07/06 04:23:58;;;;;;;7.38;6.05;;;19.30;80.50;;;;;;5013385;28;20533;-64
2022/07/06 04:26:23;;;;;;;7.70;6.13;;;19.20;80.60;;;;;;5012968;28;20026;-64
2022/07/06 04:28:49;;;;;;;9.98;6.22;;;19.30;80.70;;;;;;5013338;28;20379;-64
2022/07/06 04:31:15;;;;;;;8.65;6.70;;;19.20;80.90;;;;;;5012871;28;20032;-64
2022/07/06 04:33:42;;;;;;;7.78;6.22;;;19.20;80.90;;;;;;5012737;28;20509;-65
2022/07/06 04:36:08;;;;;;;9.52;7.32;;;19.20;80.90;;;;;;5012854;28;20021;-65
2022/07/06 04:38:34;;;;;;;7.18;6.47;;;19.20;81.10;;;;;;5012923;28;20050;-65
2022/07/06 04:40:59;;;;;;;10.57;6.72;;;19.20;81.20;;;;;;5012927;28;20038;-68
2022/07/06 04:43:25;;;;;;;8.48;6.72;;;19.20;81.10;;;;;;5012484;28;20045;-66
2022/07/06 04:45:50;;;;;;;6.95;6.25;;;19.20;81.20;;;;;;5012748;28;20018;-67
2022/07/06 04:48:16;;;;;;;8.15;7.35;;;19.20;81.20;;;;;;5012936;28;20037;-67
2022/07/06 04:50:42;;;;;;;8.90;7.05;;;19.20;81.40;;;;;;5012916;28;20475;-67
2022/07/06 04:53:07;;;;;;;10.70;7.18;;;19.20;81.30;;;;;;5012742;28;20377;-65
2022/07/06 04:55:33;;;;;;;9.75;7.10;;;19.20;81.40;;;;;;5012953;28;20025;-67
2022/07/06 04:57:58;;;;;;;7.50;6.57;;;19.20;81.40;;;;;;5012963;28;20104;-68
2022/07/06 05:00:24;;;;;;;11.93;6.60;;;19.20;81.50;;;;;;5014238;28;20125;-68
2022/07/06 05:02:50;;;;;;;7.55;6.47;;;19.20;81.50;;;;;;5015261;28;20049;-68
2022/07/06 05:05:15;;;;;;;10.98;6.25;;;19.20;81.70;;;;;;5016717;28;20049;-70
2022/07/06 05:07:41;;;;;;;9.80;6.88;;;19.20;81.70;;;;;;5014678;28;20510;-68
2022/07/06 05:10:09;;;;;;;7.35;6.05;;;19.20;81.80;;;;;;5015213;28;20030;-68
2022/07/06 05:12:35;;;;;;;11.27;6.68;;;19.20;81.90;;;;;;5016192;28;20045;-68
2022/07/06 05:15:00;;;;;;;10.82;6.85;;;19.20;81.80;;;;;;5016072;28;20026;-66
2022/07/06 05:17:26;;;;;;;10.35;6.97;;;19.20;82.10;;;;;;5015953;28;20060;-68
2022/07/06 05:19:52;;;;;;;8.20;7.32;;;19.20;82.10;;;;;;5016110;28;20464;-66
2022/07/06 05:22:18;;;;;;;12.48;8.30;;;19.20;81.90;;;;;;5016145;28;20022;-67
2022/07/06 05:24:44;;;;;;;10.27;8.18;;;19.20;82.20;;;;;;5016173;28;20018;-66
2022/07/06 05:27:10;;;;;;;8.70;6.85;;;19.20;82.30;;;;;;4998066;28;20561;-67
2022/07/06 05:29:35;;;;;;;9.55;6.80;;;19.20;82.30;;;;;;5015435;28;20025;-68
2022/07/06 05:32:01;;;;;;;10.63;8.32;;;19.20;82.30;;;;;;5015830;28;20038;-68
2022/07/06 05:34:27;;;;;;;8.77;7.85;;;19.30;82.50;;;;;;5015827;28;20041;-68
2022/07/06 05:36:53;;;;;;;10.50;7.40;;;19.30;82.60;;;;;;5015896;28;20450;-68
2022/07/06 05:39:20;;;;;;;9.23;7.75;;;19.30;82.60;;;;;;5015860;28;20094;-67
2022/07/06 05:41:46;;;;;;;11.65;7.38;;;19.30;82.70;;;;;;5015602;28;20026;-67
2022/07/06 05:44:12;;;;;;;9.13;7.47;;;19.30;83.10;;;;;;5014978;28;20501;-65
2022/07/06 05:46:37;;;;;;;10.20;6.47;;;19.40;83.10;;;;;;5015589;28;20030;-67
2022/07/06 05:51:47;;;;;;;10.63;7.13;;;19.50;83.50;;;;;;5015532;28;20044;-67
2022/07/06 05:54:12;;;;;;;12.45;7.70;;;19.50;83.40;;;;;;5015479;28;20121;-67
2022/07/06 05:56:38;;;;;;;12.90;7.32;;;19.60;83.40;;;;;;5015358;28;20471;-68
2022/07/06 05:59:04;;;;;;;12.38;7.32;;;19.70;83.60;;;;;;5014977;28;20060;-67
2022/07/06 06:01:29;;;;;;;10.02;6.95;;;19.70;83.70;;;;;;5015238;28;20015;-67
2022/07/06 06:03:55;;;;;;;11.13;7.28;;;19.70;83.70;;;;;;5015629;28;20471;-67
2022/07/06 06:06:20;;;;;;;11.85;7.03;;;19.80;83.70;;;;;;5015364;28;20029;-66
2022/07/06 06:08:46;;;;;;;10.27;7.10;;;19.80;83.60;;;;;;5015128;28;20029;-67
2022/07/06 06:11:11;;;;;;;12.90;7.68;;;19.80;83.50;;;;;;5014098;28;20452;-67
2022/07/06 06:13:37;;;;;;;13.32;6.80;;;19.90;83.60;;;;;;5014703;28;20033;-66
2022/07/06 06:16:03;;;;;;;13.10;7.95;;;19.90;83.30;;;;;;5014998;28;20033;-67
2022/07/06 06:18:29;;;;;;;8.57;7.18;;;19.90;83.30;;;;;;5015019;28;20105;-67
2022/07/06 06:20:54;;;;;;;9.98;6.93;;;19.90;83.20;;;;;;5015102;28;20029;-67
2022/07/06 06:23:20;;;;;;;9.63;6.35;;;19.90;83.20;;;;;;5015056;28;20495;-67
2022/07/06 06:25:45;;;;;;;12.60;8.45;;;20.00;83.40;;;;;;4997083;28;20468;-67
2022/07/06 06:28:11;;;;;;;9.23;7.60;;;20.00;83.60;;;;;;5014662;28;20392;-66
2022/07/06 06:30:38;;;;;;;11.63;7.22;;;20.00;83.40;;;;;;5014664;28;20533;-66
2022/07/06 06:33:06;;;;;;;10.70;6.60;;;20.10;83.40;;;;;;5014670;28;20038;-67
2022/07/06 06:35:32;;;;;;;8.20;6.47;;;20.10;83.70;;;;;;5014774;28;20444;-66
2022/07/06 06:37:57;;;;;;;9.25;6.18;;;20.20;83.60;;;;;;4997415;28;20546;-67
2022/07/06 06:40:23;;;;;;;10.40;6.28;;;20.20;83.40;;;;;;5014414;28;20033;-67
2022/07/06 06:42:48;;;;;;;10.98;6.45;;;20.20;83.20;;;;;;5014069;28;20030;-67
2022/07/06 06:45:14;;;;;;;9.45;5.70;;;20.20;83.00;;;;;;5014390;28;20105;-66
2022/07/06 06:47:39;;;;;;;10.68;5.25;;;20.30;82.80;;;;;;4996800;28;20205;-66
2022/07/06 06:50:05;;;;;;;9.88;4.60;;;20.30;82.80;;;;;;5014563;28;20026;-67
2022/07/06 06:52:31;;;;;;;10.90;5.50;;;20.30;82.70;;;;;;5014399;28;20093;-66
2022/07/06 06:54:56;;;;;;;9.63;4.90;;;20.40;82.70;;;;;;5014502;28;20471;-66
2022/07/06 06:57:22;;;;;;;8.43;4.93;;;20.40;82.40;;;;;;5014110;28;20383;-67
2022/07/06 06:59:47;;;;;;;11.57;5.00;;;20.50;82.30;;;;;;5014081;28;20502;-67
2022/07/06 07:02:13;;;;;;;11.80;5.45;;;20.50;82.20;;;;;;5006210;28;20021;-67
2022/07/06 07:04:38;;;;;;;11.85;4.82;;;20.60;82.30;;;;;;5014190;28;20022;-67
2022/07/06 07:07:04;;;;;;;8.50;4.68;;;20.60;82.00;;;;;;5014180;28;20040;-67
2022/07/06 07:09:30;;;;;;;9.32;5.05;;;20.70;81.90;;;;;;5014123;28;20490;-67
2022/07/06 07:11:55;;;;;;;11.38;5.28;;;20.70;81.80;;;;;;5013674;28;20045;-67
2022/07/06 07:14:21;;;;;;;8.73;3.97;;;20.70;81.70;;;;;;5013821;28;20034;-66
2022/07/06 07:16:46;;;;;;;8.68;3.25;;;20.80;81.60;;;;;;5013887;28;20583;-67
2022/07/06 07:19:12;;;;;;;7.07;3.00;;;20.90;80.90;;;;;;5014068;28;20022;-67
2022/07/06 07:21:37;;;;;;;7.78;2.85;;;20.90;80.30;;;;;;5013759;28;20395;-66
2022/07/06 07:24:03;;;;;;;5.43;2.75;;;20.90;80.10;;;;;;5013897;28;20127;-66
2022/07/06 07:26:29;;;;;;;6.20;2.55;;;21.00;80.10;;;;;;5013521;28;20022;-67
2022/07/06 07:28:54;;;;;;;2.72;1.70;;;21.00;79.70;;;;;;5013625;28;20033;-68
2022/07/06 07:31:20;;;;;;;5.22;2.15;;;21.10;79.40;;;;;;5013929;28;20041;-68
2022/07/06 07:33:45;;;;;;;3.90;1.98;;;21.10;78.60;;;;;;5013742;28;20471;-68
2022/07/06 07:36:11;;;;;;;4.47;2.15;;;21.20;78.50;;;;;;5013511;28;20494;-67
2022/07/06 07:38:36;;;;;;;2.92;1.70;;;21.20;78.50;;;;;;5013682;28;20038;-67
2022/07/06 07:41:02;;;;;;;5.95;2.50;;;21.30;79.10;;;;;;5013353;28;20026;-68
2022/07/06 07:43:27;;;;;;;3.85;2.15;;;21.30;78.20;;;;;;5013556;28;20500;-67
2022/07/06 07:45:53;;;;;;;4.93;2.08;;;21.40;78.00;;;;;;5013334;28;20025;-68
2022/07/06 07:48:19;;;;;;;3.13;1.42;;;21.50;77.70;;;;;;5013740;28;20093;-68
2022/07/06 07:50:45;;;;;;;2.50;1.17;;;21.50;77.20;;;;;;5013489;28;20076;-67
2022/07/06 07:53:11;;;;;;;3.40;1.30;;;21.50;75.90;;;;;;5013522;28;20439;-68
2022/07/06 07:55:36;;;;;;;3.72;1.15;;;21.60;75.80;;;;;;5013055;28;20122;-68
2022/07/06 07:58:02;;;;;;;4.50;1.50;;;21.60;75.20;;;;;;5013552;28;20021;-67
2022/07/06 08:00:28;;;;;;;4.68;1.10;;;21.60;74.90;;;;;;5013262;28;20022;-67
2022/07/06 08:02:54;;;;;;;3.33;1.10;;;21.80;75.10;;;;;;5013211;28;20029;-66
2022/07/06 08:05:20;;;;;;;5.38;1.55;;;21.70;75.00;;;;;;5013282;28;20467;-68
2022/07/06 08:07:46;;;;;;;4.20;1.27;;;21.80;74.90;;;;;;5013275;28;20037;-67
2022/07/06 08:10:11;;;;;;;5.18;1.35;;;21.80;74.70;;;;;;5013046;28;20026;-67
2022/07/06 08:12:37;;;;;;;3.83;1.40;;;21.90;74.90;;;;;;5012864;28;20034;-65
2022/07/06 08:15:04;;;;;;;4.10;1.13;;;21.90;74.50;;;;;;5013223;28;20032;-67
2022/07/06 08:17:30;;;;;;;4.90;1.15;;;22.00;74.00;;;;;;5013165;28;20479;-67
2022/07/06 08:19:56;;;;;;;2.83;1.05;;;22.00;73.40;;;;;;5013324;28;20022;-68
2022/07/06 08:22:22;;;;;;;3.70;1.27;;;22.10;72.60;;;;;;5013113;28;20030;-67
2022/07/06 08:24:48;;;;;;;3.20;0.90;;;22.10;71.80;;;;;;4995156;28;20398;-65
2022/07/06 08:27:13;;;;;;;3.88;1.08;;;22.20;71.70;;;;;;5013145;28;20026;-66
2022/07/06 08:29:39;;;;;;;3.17;1.17;;;22.20;71.70;;;;;;5013260;28;20379;-67
2022/07/06 08:32:05;;;;;;;3.55;1.20;;;22.20;71.80;;;;;;5013070;28;20372;-67
2022/07/06 08:34:30;;;;;;;2.67;0.90;;;22.30;71.70;;;;;;5014277;28;20034;-66
2022/07/06 08:36:56;;;;;;;3.13;1.20;;;22.30;72.00;;;;;;5016701;28;20471;-65
2022/07/06 08:39:22;;;;;;;3.65;1.05;;;22.30;72.40;;;;;;5016731;28;20030;-66
2022/07/06 08:41:48;;;;;;;5.18;1.55;;;22.40;71.90;;;;;;5016524;28;20546;-67
2022/07/06 08:44:15;;;;;;;3.10;1.58;;;22.40;71.40;;;;;;5008793;28;20546;-68
2022/07/06 08:46:41;;;;;;;6.72;1.58;;;22.40;71.00;;;;;;5016618;28;20034;-68
2022/07/06 08:49:08;;;;;;;4.70;2.00;;;22.50;71.70;;;;;;5016705;28;20025;-68
2022/07/06 08:51:37;;;;;;;3.42;1.15;;;22.50;71.00;;;;;;5016594;28;20054;-67
2022/07/06 08:54:03;;;;;;;2.53;1.10;;;22.60;71.40;;;;;;5016406;28;20034;-67
2022/07/06 08:56:29;;;;;;;3.42;1.35;;;22.60;71.70;;;;;;5016616;28;20029;-67
2022/07/06 08:58:55;;;;;;;4.57;1.08;;;22.60;71.40;;;;;;5016443;28;20018;-66
2022/07/06 09:01:21;;;;;;;3.47;1.50;;;22.60;71.60;;;;;;5016661;28;20471;-67
2022/07/06 09:03:50;;;;;;;4.25;1.65;;;22.60;71.30;;;;;;5016238;28;20372;-66
2022/07/06 09:06:25;;;;;;;3.28;1.35;;;22.70;70.30;;;;;;5016309;28;20030;-65
2022/07/06 09:08:56;;;;;;;4.20;1.90;;;22.70;70.30;;;;;;4998360;28;20471;-67
2022/07/06 09:11:22;;;;;;;7.47;2.03;;;22.70;70.10;;;;;;4998795;28;20072;-68
2022/07/06 09:13:48;;;;;;;4.38;1.40;;;22.70;69.70;;;;;;4998801;28;20041;-68
2022/07/06 09:16:15;;;;;;;3.60;1.67;;;22.80;70.10;;;;;;5016151;28;20030;-67
2022/07/06 09:18:45;;;;;;;5.20;2.17;;;22.80;70.00;;;;;;5016107;28;20403;-65
2022/07/06 09:21:11;;;;;;;5.45;1.80;;;22.80;69.90;;;;;;5016041;28;20054;-67
2022/07/06 09:23:37;;;;;;;4.20;1.85;;;22.90;69.90;;;;;;5015855;28;20352;-68
2022/07/06 09:26:06;;;;;;;4.95;1.70;;;22.90;69.90;;;;;;5016079;28;20154;-68
2022/07/06 09:28:45;;;;;;;4.43;2.20;;;22.90;70.00;;;;;;5016001;28;20109;-67
2022/07/06 09:31:12;;;;;;;4.35;1.92;;;23.00;69.70;;;;;;5016029;28;20534;-67
2022/07/06 09:33:38;;;;;;;6.10;1.80;;;23.00;69.70;;;;;;5015808;28;20476;-67
2022/07/06 09:36:05;;;;;;;5.78;1.63;;;23.00;69.70;;;;;;5015514;28;20029;-67
2022/07/06 09:38:31;;;;;;;4.40;1.63;;;23.00;69.60;;;;;;5015845;28;20034;-67
2022/07/06 09:40:57;;;;;;;2.90;1.50;;;23.00;69.50;;;;;;5015591;28;20030;-67
2022/07/06 09:43:24;;;;;;;3.50;1.10;;;23.00;69.70;;;;;;5015539;28;20038;-65
2022/07/06 09:45:56;;;;;;;3.72;1.80;;;23.10;70.00;;;;;;5014378;28;20025;-68
2022/07/06 09:48:25;;;;;;;3.63;1.48;;;23.10;69.70;;;;;;5015526;28;20057;-67
2022/07/06 09:51:02;;;;;;;4.10;1.02;;;23.10;69.40;;;;;;5015312;28;20486;-67
2022/07/06 09:53:28;;;;;;;3.97;1.60;;;23.10;69.40;;;;;;5015659;28;20030;-67
2022/07/06 09:55:57;;;;;;;3.90;1.20;;;23.10;69.00;;;;;;5015390;28;20060;-67
2022/07/06 09:58:23;;;;;;;2.53;1.48;;;23.10;69.20;;;;;;5015356;28;20066;-68
2022/07/06 10:00:49;;;;;;;3.33;1.70;;;23.20;69.00;;;;;;5015321;28;20026;-67
2022/07/06 10:03:16;;;;;;;4.15;1.60;;;23.20;68.80;;;;;;4997695;28;20032;-67
2022/07/06 10:05:49;;;;;;;4.20;1.80;;;23.20;68.70;;;;;;5015203;28;20073;-67
2022/07/06 10:08:16;;;;;;;5.93;1.73;;;23.20;68.80;;;;;;5015225;28;20021;-67
2022/07/06 10:10:43;;;;;;;3.30;1.08;;;23.20;69.30;;;;;;5015450;28;20025;-68
2022/07/06 10:13:09;;;;;;;4.45;1.58;;;23.20;69.00;;;;;;5015041;28;20046;-68
2022/07/06 10:15:39;;;;;;;3.58;1.27;;;23.20;69.20;;;;;;5014913;28;20471;-68
2022/07/06 10:18:08;;;;;;;5.57;1.58;;;23.20;69.10;;;;;;5015171;28;20049;-68
2022/07/06 10:20:40;;;;;;;4.65;1.60;;;23.30;68.30;;;;;;5014676;28;20026;-68
2022/07/06 10:23:07;;;;;;;3.08;1.40;;;23.30;67.90;;;;;;5015165;28;20026;-68
2022/07/06 10:25:34;;;;;;;5.40;1.60;;;23.30;67.70;;;;;;5014881;28;20030;-69
2022/07/06 10:28:01;;;;;;;6.15;1.70;;;23.30;67.20;;;;;;5014796;28;20082;-66
2022/07/06 10:30:28;;;;;;;4.78;1.65;;;23.30;67.00;;;;;;5014605;28;20029;-66
2022/07/06 10:32:56;;;;;;;2.83;1.05;;;23.30;67.40;;;;;;5014835;28;20069;-66
2022/07/06 10:35:22;;;;;;;3.40;1.67;;;23.30;67.90;;;;;;5014593;28;20030;-67
2022/07/06 10:38:07;;;;;;;4.60;1.90;;;23.30;67.60;;;;;;5014883;28;20018;-66
2022/07/06 10:43:23;;;;;;;5.28;2.45;;;23.30;67.80;;;;;;5007924;28;20056;-68
2022/07/06 10:45:48;;;;;;;5.40;2.17;;;23.40;67.70;;;;;;5014511;28;20017;-67
2022/07/06 10:48:17;;;;;;;5.00;2.60;;;23.40;67.20;;;;;;5014609;28;20025;-68
2022/07/06 10:50:46;;;;;;;4.78;2.30;;;23.40;66.80;;;;;;5014172;28;20022;-68
2022/07/06 10:53:26;;;;;;;3.75;2.08;;;23.40;66.80;;;;;;5014371;28;20041;-68
2022/07/06 10:55:56;;;;;;;5.65;2.45;;;23.40;67.10;;;;;;4997410;28;20029;-68
2022/07/06 10:58:36;;;;;;;3.60;1.70;;;23.50;67.30;;;;;;4996342;28;20032;-66
2022/07/06 11:01:03;;;;;;;4.25;1.52;;;23.50;67.40;;;;;;5014315;28;20026;-66
2022/07/06 11:03:39;;;;;;;4.47;1.80;;;23.50;67.20;;;;;;5014085;28;20495;-66
2022/07/06 11:06:12;;;;;;;3.88;1.27;;;23.50;67.20;;;;;;5014148;28;20177;-66
2022/07/06 11:08:54;;;;;;;3.15;1.50;;;23.50;67.70;;;;;;5014119;28;20033;-64
2022/07/06 11:11:23;;;;;;;6.65;2.00;;;23.50;67.70;;;;;;5013508;28;20034;-67
2022/07/06 11:13:49;;;;;;;8.95;2.25;;;23.50;67.60;;;;;;5014073;28;20026;-64
2022/07/06 11:16:16;;;;;;;5.57;2.60;;;23.50;67.50;;;;;;5013672;28;20044;-64
2022/07/06 11:18:50;;;;;;;2.95;1.20;;;23.50;67.30;;;;;;5013732;28;20494;-64
2022/07/06 11:21:22;;;;;;;3.42;1.60;;;23.50;67.50;;;;;;5013748;28;20033;-65
2022/07/06 11:23:50;;;;;;;4.75;1.80;;;23.60;67.80;;;;;;5014014;28;20134;-64
2022/07/06 11:26:17;;;;;;;4.28;1.95;;;23.60;68.40;;;;;;5013593;28;20407;-65
2022/07/06 11:28:46;;;;;;;2.60;1.35;;;23.60;68.00;;;;;;4996382;28;20022;-65
2022/07/06 11:31:11;;;;;;;4.53;1.83;;;23.60;68.10;;;;;;5013626;28;20108;-66
2022/07/06 11:33:37;;;;;;;7.22;2.72;;;23.60;68.00;;;;;;5013561;28;20057;-66
2022/07/06 11:36:20;;;;;;;6.53;2.33;;;23.70;67.60;;;;;;5013394;28;20049;-65
2022/07/06 11:38:47;;;;;;;5.88;1.92;;;23.70;67.50;;;;;;5013865;28;20046;-64
2022/07/06 11:41:14;;;;;;;6.20;2.03;;;23.70;67.40;;;;;;5013526;28;20467;-64
2022/07/06 11:43:43;;;;;;;3.97;2.13;;;23.70;67.40;;;;;;5013563;28;20029;-64
2022/07/06 11:46:29;;;;;;;4.40;2.53;;;23.70;67.70;;;;;;5013185;28;20022;-65
2022/07/06 11:49:04;;;;;;;5.40;2.30;;;23.70;67.80;;;;;;5013641;28;20029;-64
2022/07/06 11:51:34;;;;;;;5.57;1.80;;;23.70;67.80;;;;;;5013634;28;20422;-64
2022/07/06 11:54:06;;;;;;;2.83;1.40;;;23.70;67.90;;;;;;5013389;28;20026;-66
2022/07/06 11:56:31;;;;;;;6.35;2.20;;;23.70;68.10;;;;;;5013616;28;20021;-67
2022/07/06 11:58:59;;;;;;;3.20;1.70;;;23.70;68.10;;;;;;5013605;28;20386;-65
2022/07/06 12:01:27;;;;;;;6.13;2.78;;;23.70;68.20;;;;;;5013279;28;20455;-67
2022/07/06 12:03:56;;;;;;;4.22;2.80;;;23.70;68.30;;;;;;5013268;28;20022;-67
2022/07/06 12:06:24;;;;;;;5.22;3.00;;;23.80;68.20;;;;;;5013157;28;20029;-67
2022/07/06 12:08:52;;;;;;;6.00;2.70;;;23.80;68.30;;;;;;5012619;28;20018;-67
2022/07/06 12:11:22;;;;;;;4.78;2.65;;;23.80;68.10;;;;;;5012886;28;20034;-66
2022/07/06 12:13:49;;;;;;;2.90;1.48;;;23.80;68.20;;;;;;5013295;28;20037;-66
2022/07/06 12:16:16;;;;;;;4.75;2.25;;;23.80;68.40;;;;;;5012616;28;20022;-67
2022/07/06 12:18:42;;;;;;;4.40;1.70;;;23.80;68.40;;;;;;5013546;28;20034;-65
2022/07/06 12:21:13;;;;;;;4.25;2.00;;;23.80;68.40;;;;;;5013008;28;20034;-66
2022/07/06 12:23:41;;;;;;;3.42;1.67;;;23.80;68.20;;;;;;5013306;28;20045;-67
2022/07/06 12:26:07;;;;;;;3.03;1.33;;;23.80;68.20;;;;;;5012926;28;20033;-66
2022/07/06 12:28:33;;;;;;;3.45;1.00;;;23.80;68.30;;;;;;5013085;28;20435;-66
2022/07/06 12:30:58;;;;;;;1.90;1.10;;;23.80;68.40;;;;;;5012928;28;20518;-67
2022/07/06 12:33:24;;;;;;;3.15;2.13;;;23.90;68.40;;;;;;5012910;28;20506;-66
2022/07/06 12:35:49;;;;;;;5.05;2.55;;;23.80;68.20;;;;;;5013092;28;20022;-67
2022/07/06 12:38:25;;;;;;;2.65;1.77;;;23.90;68.30;;;;;;5012915;28;20026;-66
2022/07/06 12:40:51;;;;;;;2.55;1.33;;;23.90;68.30;;;;;;5013212;28;20029;-64
2022/07/06 12:43:40;;;;;;;3.50;1.25;;;23.90;68.30;;;;;;5012607;28;20148;-66
2022/07/06 12:46:37;;;;;;;3.88;1.83;;;23.90;68.20;;;;;;4994989;28;20018;-67
2022/07/06 12:49:24;;;;;;;5.22;1.80;;;23.90;68.10;;;;;;5012759;28;20026;-64
2022/07/06 12:51:55;;;;;;;5.72;1.95;;;23.90;68.10;;;;;;5012784;28;20044;-64